createdAt,value
2023-02-03T00:01:56.097Z,78.92
2023-02-03T00:04:23.129Z,78.14
2023-02-03T00:06:51.062Z,79.16
2023-02-03T00:09:19.191Z,78.56
2023-02-03T00:11:46.239Z,79.62
2023-02-03T00:14:13.300Z,80.93
2023-02-03T00:16:40.371Z,79.57
2023-02-03T00:19:07.431Z,80.75
2023-02-03T00:21:34.475Z,80.71
2023-02-03T00:24:01.569Z,80.24
2023-02-03T00:26:28.793Z,83.11
2023-02-03T00:28:55.970Z,83.46
2023-02-03T00:31:25.055Z,83.70
2023-02-03T00:33:57.042Z,83.19
2023-02-03T00:36:25.530Z,82.85
2023-02-03T00:38:53.400Z,82.17
2023-02-03T00:41:21.798Z,82.23
2023-02-03T00:43:49.674Z,83.00
2023-02-03T00:46:17.002Z,83.10
2023-02-03T00:48:44.274Z,82.41
2023-02-03T00:51:11.317Z,80.70
2023-02-03T00:53:38.371Z,80.89
2023-02-03T00:56:12.570Z,80.49
2023-02-03T00:58:42.929Z,80.79
2023-02-03T01:01:10.423Z,82.96
2023-02-03T01:03:38.067Z,83.44
2023-02-03T01:06:24.395Z,83.44
2023-02-03T01:08:51.591Z,82.35
2023-02-03T01:11:24.408Z,81.54
2023-02-03T01:13:52.114Z,82.32
2023-02-03T01:16:20.953Z,81.94
2023-02-03T01:18:48.766Z,81.53
2023-02-03T01:21:18.630Z,82.30
2023-02-03T01:23:46.380Z,84.34
2023-02-03T01:26:16.297Z,83.56
2023-02-03T01:28:43.717Z,84.48
2023-02-03T01:31:17.784Z,83.29
2023-02-03T01:33:48.885Z,83.42
2023-02-03T01:36:17.455Z,83.55
2023-02-03T01:38:45.666Z,82.67
2023-02-03T01:41:17.290Z,83.16
2023-02-03T01:43:53.752Z,82.42
2023-02-03T01:46:37.631Z,82.03
2023-02-03T01:49:08.402Z,83.84
2023-02-03T01:51:38.546Z,82.88
2023-02-03T01:54:07.441Z,82.30
2023-02-03T01:56:38.526Z,82.45
2023-02-03T01:59:06.088Z,80.96
2023-02-03T02:01:34.300Z,81.97
2023-02-03T02:04:03.954Z,82.31
2023-02-03T02:06:31.069Z,81.77
2023-02-03T02:09:00.896Z,82.58
2023-02-03T02:11:29.725Z,82.52
2023-02-03T02:14:00.705Z,82.02
2023-02-03T02:17:04.180Z,83.36
2023-02-03T02:20:05.841Z,83.82
2023-02-03T02:23:17.855Z,83.54
2023-02-03T02:26:17.616Z,83.50
2023-02-03T02:29:03.275Z,83.70
2023-02-03T02:31:52.981Z,82.92
2023-02-03T02:34:38.825Z,82.51
2023-02-03T02:37:55.305Z,84.04
2023-02-03T02:40:59.452Z,84.36
2023-02-03T02:43:52.421Z,83.60
2023-02-03T02:46:27.285Z,83.59
2023-02-03T02:49:28.413Z,82.05
2023-02-03T02:51:57.971Z,82.23
2023-02-03T02:54:29.160Z,81.95
2023-02-03T02:57:00.773Z,81.43
2023-02-03T02:59:29.675Z,84.49
2023-02-03T03:01:57.196Z,83.98
2023-02-03T03:04:27.806Z,83.72
2023-02-03T03:07:05.700Z,83.75
2023-02-03T03:09:55.004Z,85.50
2023-02-03T03:12:27.103Z,83.46
2023-02-03T03:15:03.449Z,83.85
2023-02-03T03:17:35.472Z,83.51
2023-02-03T03:20:10.066Z,83.05
2023-02-03T03:22:45.846Z,82.99
2023-02-03T03:25:25.086Z,82.05
2023-02-03T03:28:03.140Z,81.77
2023-02-03T03:30:35.481Z,81.93
2023-02-03T03:33:03.758Z,81.75
2023-02-03T03:35:47.230Z,80.71
2023-02-03T03:38:23.618Z,81.34
2023-02-03T03:41:04.031Z,81.16
2023-02-03T03:43:35.779Z,81.28
2023-02-03T03:46:10.311Z,81.02
2023-02-03T03:48:53.341Z,80.60
2023-02-03T03:51:27.257Z,80.15
2023-02-03T03:53:58.044Z,82.15
2023-02-03T03:56:31.080Z,83.40
2023-02-03T03:59:01.335Z,83.61
2023-02-03T04:01:29.825Z,82.76
2023-02-03T04:04:00.375Z,82.62
2023-02-03T04:06:27.423Z,82.30
2023-02-03T04:08:54.471Z,83.20
2023-02-03T04:11:39.996Z,82.21
2023-02-03T04:14:07.042Z,82.96
2023-02-03T04:16:34.206Z,84.50
2023-02-03T04:19:01.211Z,87.10
2023-02-03T04:21:28.264Z,86.92
2023-02-03T04:23:56.721Z,85.73
2023-02-03T04:26:24.454Z,85.85
2023-02-03T04:28:51.483Z,85.07
2023-02-03T04:31:18.727Z,85.36
2023-02-03T04:33:45.827Z,85.17
2023-02-03T04:36:12.939Z,84.98
2023-02-03T04:38:39.901Z,84.79
2023-02-03T04:41:06.942Z,86.21
2023-02-03T04:43:52.649Z,86.57
2023-02-03T04:46:19.868Z,85.47
2023-02-03T04:48:48.353Z,85.33
2023-02-03T04:51:15.505Z,84.40
2023-02-03T04:53:42.523Z,85.38
2023-02-03T04:56:09.647Z,85.88
2023-02-03T04:58:37.876Z,85.91
2023-02-03T05:01:09.229Z,84.82
2023-02-03T05:03:36.850Z,85.33
2023-02-03T05:06:05.627Z,84.31
2023-02-03T05:08:33.866Z,84.77
2023-02-03T05:11:02.248Z,84.89
2023-02-03T05:13:29.729Z,84.05
2023-02-03T05:15:56.812Z,84.48
2023-02-03T05:18:23.848Z,84.59
2023-02-03T05:20:50.906Z,84.47
2023-02-03T05:23:17.950Z,84.06
2023-02-03T05:25:45.384Z,83.55
2023-02-03T05:28:12.618Z,84.21
2023-02-03T05:30:39.769Z,84.20
2023-02-03T05:33:07.030Z,83.23
2023-02-03T05:35:34.452Z,83.34
2023-02-03T05:38:01.617Z,83.93
2023-02-03T05:40:47.181Z,84.31
2023-02-03T05:43:14.691Z,84.91
2023-02-03T05:45:41.877Z,85.52
2023-02-03T05:48:09.375Z,84.88
2023-02-03T05:50:38.581Z,84.43
2023-02-03T05:53:09.257Z,84.01
2023-02-03T05:55:36.964Z,83.82
2023-02-03T05:58:04.825Z,84.01
2023-02-03T06:00:31.830Z,84.58
2023-02-03T06:03:02.339Z,84.51
2023-02-03T06:05:30.842Z,83.89
2023-02-03T06:07:58.241Z,84.41
2023-02-03T06:10:25.564Z,84.29
2023-02-03T06:12:53.037Z,83.82
2023-02-03T06:15:20.147Z,84.11
2023-02-03T06:17:48.751Z,83.88
2023-02-03T06:20:18.360Z,82.55
2023-02-03T06:22:45.906Z,84.02
2023-02-03T06:25:14.498Z,84.06
2023-02-03T06:27:42.437Z,84.10
2023-02-03T06:30:11.447Z,84.27
2023-02-03T06:32:38.903Z,84.81
2023-02-03T06:35:06.137Z,85.63
2023-02-03T06:37:33.435Z,84.50
2023-02-03T06:40:00.578Z,84.27
2023-02-03T06:42:27.872Z,84.71
2023-02-03T06:44:55.236Z,84.88
2023-02-03T06:47:22.256Z,84.31
2023-02-03T06:49:49.295Z,85.49
2023-02-03T06:52:16.292Z,85.32
2023-02-03T06:54:43.336Z,84.71
2023-02-03T06:57:10.341Z,86.67
2023-02-03T06:59:37.566Z,86.83
2023-02-03T07:02:04.921Z,86.31
2023-02-03T07:04:31.995Z,86.43
2023-02-03T07:07:07.827Z,86.17
2023-02-03T07:09:34.877Z,85.29
2023-02-03T07:12:01.875Z,84.54
2023-02-03T07:14:30.884Z,83.96
2023-02-03T07:16:58.198Z,85.56
2023-02-03T07:19:25.280Z,84.75
2023-02-03T07:21:52.290Z,85.51
2023-02-03T07:24:19.286Z,85.16
2023-02-03T07:26:46.298Z,83.76
2023-02-03T07:29:13.303Z,84.99
2023-02-03T07:31:40.518Z,85.38
2023-02-03T07:34:07.561Z,84.08
2023-02-03T07:36:35.405Z,85.58
2023-02-03T07:39:02.539Z,85.50
2023-02-03T07:41:29.617Z,85.12
2023-02-03T07:43:56.614Z,85.33
2023-02-03T07:46:23.798Z,85.06
2023-02-03T07:48:50.835Z,85.33
2023-02-03T07:51:17.871Z,85.41
2023-02-03T07:53:45.486Z,85.73
2023-02-03T07:56:12.939Z,85.56
2023-02-03T07:58:40.099Z,85.17
2023-02-03T08:01:15.340Z,87.64
2023-02-03T08:03:42.722Z,87.50
2023-02-03T08:06:10.265Z,87.10
2023-02-03T08:08:37.366Z,86.14
2023-02-03T08:11:04.726Z,85.06
2023-02-03T08:13:31.735Z,84.59
2023-02-03T08:15:58.981Z,82.27
2023-02-03T08:18:26.089Z,83.53
2023-02-03T08:20:53.175Z,83.88
2023-02-03T08:23:20.383Z,82.81
2023-02-03T08:25:52.576Z,81.83
2023-02-03T08:28:19.849Z,81.47
2023-02-03T08:30:47.087Z,82.17
2023-02-03T08:33:14.161Z,82.71
2023-02-03T08:35:41.252Z,82.20
2023-02-03T08:38:08.287Z,82.19
2023-02-03T08:40:35.367Z,82.37
2023-02-03T08:43:02.438Z,80.98
2023-02-03T08:45:29.721Z,80.86
2023-02-03T08:47:57.525Z,81.17
2023-02-03T08:50:24.812Z,80.81
2023-02-03T08:52:51.926Z,80.67
2023-02-03T08:55:18.992Z,79.35
2023-02-03T08:57:46.190Z,79.85
2023-02-03T09:00:13.824Z,80.12
2023-02-03T09:02:40.939Z,80.66
2023-02-03T09:05:08.345Z,81.10
2023-02-03T09:07:35.462Z,82.74
2023-02-03T09:10:02.560Z,83.06
2023-02-03T09:12:29.979Z,83.01
2023-02-03T09:14:56.983Z,83.94
2023-02-03T09:17:24.058Z,84.17
2023-02-03T09:19:51.143Z,83.38
2023-02-03T09:22:18.217Z,84.40
2023-02-03T09:24:45.390Z,83.13
2023-02-03T09:27:12.833Z,84.42
2023-02-03T09:29:39.942Z,84.52
2023-02-03T09:32:09.080Z,84.51
2023-02-03T09:34:37.201Z,84.48
2023-02-03T09:37:04.580Z,84.70
2023-02-03T09:39:31.829Z,83.67
2023-02-03T09:42:09.527Z,84.57
2023-02-03T09:44:42.240Z,84.32
2023-02-03T09:47:15.064Z,84.67
2023-02-03T09:49:55.989Z,85.05
2023-02-03T09:52:45.505Z,84.18
2023-02-03T09:55:30.262Z,82.42
2023-02-03T09:58:14.185Z,81.74
2023-02-03T10:00:50.576Z,81.69
2023-02-03T10:03:32.453Z,82.56
2023-02-03T10:06:24.509Z,82.83
2023-02-03T10:09:06.680Z,81.79
2023-02-03T10:11:55.633Z,83.51
2023-02-03T10:14:41.251Z,85.57
2023-02-03T10:17:22.901Z,86.42
2023-02-03T10:20:14.467Z,86.29
2023-02-03T10:22:49.017Z,84.31
2023-02-03T10:25:39.907Z,84.62
2023-02-03T10:28:17.131Z,83.54
2023-02-03T10:30:49.064Z,83.18
2023-02-03T10:33:19.037Z,82.28
2023-02-03T10:35:54.029Z,81.90
2023-02-03T10:38:44.874Z,82.79
2023-02-03T10:41:12.204Z,84.84
2023-02-03T10:43:48.755Z,84.49
2023-02-03T10:46:22.322Z,83.34
2023-02-03T10:48:49.815Z,82.40
2023-02-03T10:51:35.228Z,81.39
2023-02-03T10:54:02.453Z,79.30
2023-02-03T10:56:39.191Z,78.88
2023-02-03T10:59:07.505Z,78.98
2023-02-03T11:01:44.639Z,79.38
2023-02-03T11:04:32.748Z,79.62
2023-02-03T11:07:02.324Z,78.67
2023-02-03T11:09:34.307Z,78.48
2023-02-03T11:12:21.024Z,78.10
2023-02-03T11:14:50.444Z,77.91
2023-02-03T11:17:24.854Z,78.14
2023-02-03T11:20:16.209Z,78.48
2023-02-03T11:22:44.683Z,77.70
2023-02-03T11:25:25.993Z,76.89
2023-02-03T11:27:54.586Z,75.82
2023-02-03T11:30:31.564Z,75.33
2023-02-03T11:33:02.409Z,74.71
2023-02-03T11:35:31.974Z,74.42
2023-02-03T11:38:01.481Z,73.89
2023-02-03T11:40:34.313Z,73.44
2023-02-03T11:43:04.939Z,73.92
2023-02-03T11:45:34.964Z,73.30
2023-02-03T11:48:10.965Z,73.20
2023-02-03T11:50:43.457Z,72.22
2023-02-03T11:53:13.660Z,71.75
2023-02-03T11:55:59.034Z,71.28
2023-02-03T11:58:44.859Z,71.34
2023-02-03T12:01:17.245Z,70.91
2023-02-03T12:03:59.506Z,72.42
2023-02-03T12:06:49.611Z,71.74
2023-02-03T12:09:26.685Z,71.81
2023-02-03T12:12:06.179Z,72.39
2023-02-03T12:14:43.246Z,71.92
2023-02-03T12:17:15.877Z,69.65
2023-02-03T12:20:31.780Z,71.13
2023-02-03T12:23:23.731Z,69.82
2023-02-03T12:26:19.207Z,70.76
2023-02-03T12:29:12.607Z,70.97
2023-02-03T12:31:59.837Z,71.27
2023-02-03T12:34:33.882Z,71.89
2023-02-03T12:37:19.059Z,71.60
2023-02-03T12:39:52.618Z,70.60
2023-02-03T12:42:39.457Z,72.43
2023-02-03T12:45:13.788Z,71.99
2023-02-03T12:47:52.829Z,72.99
2023-02-03T12:50:27.816Z,71.36
2023-02-03T12:53:17.813Z,70.86
2023-02-03T12:55:55.932Z,71.07
2023-02-03T12:58:32.481Z,71.51
2023-02-03T13:01:12.784Z,70.60
2023-02-03T13:04:01.404Z,70.28
2023-02-03T13:06:50.190Z,70.33
2023-02-03T13:09:39.503Z,71.09
2023-02-03T13:12:12.680Z,71.95
2023-02-03T13:14:49.893Z,70.97
2023-02-03T13:17:29.551Z,71.12
2023-02-03T13:20:00.659Z,71.09
2023-02-03T13:22:27.724Z,70.29
2023-02-03T13:25:07.076Z,71.42
2023-02-03T13:27:50.334Z,71.89
2023-02-03T13:30:46.115Z,72.35
2023-02-03T13:33:46.751Z,72.68
2023-02-03T13:36:32.453Z,72.95
2023-02-03T13:39:20.750Z,73.08
2023-02-03T13:41:56.686Z,73.22
2023-02-03T13:44:28.827Z,73.77
2023-02-03T13:46:59.326Z,74.33
2023-02-03T13:49:32.973Z,75.27
2023-02-03T13:52:00.585Z,75.93
2023-02-03T13:54:38.697Z,75.87
2023-02-03T13:57:18.965Z,75.90
2023-02-03T13:59:46.600Z,75.42
2023-02-03T14:02:19.713Z,75.50
2023-02-03T14:04:46.776Z,76.08
2023-02-03T14:07:39.534Z,77.37
2023-02-03T14:10:12.427Z,80.11
2023-02-03T14:12:56.385Z,80.60
2023-02-03T14:15:26.727Z,79.92
2023-02-03T14:17:58.676Z,79.72
2023-02-03T14:20:25.800Z,80.18
2023-02-03T14:23:10.770Z,79.86
2023-02-03T14:25:43.395Z,80.87
2023-02-03T14:28:20.042Z,81.09
2023-02-03T14:31:23.733Z,82.28
2023-02-03T14:34:05.985Z,81.96
2023-02-03T14:36:38.158Z,82.08
2023-02-03T14:39:32.658Z,83.78
2023-02-03T14:41:59.668Z,84.21
2023-02-03T14:44:41.985Z,85.41
2023-02-03T14:47:36.436Z,85.51
2023-02-03T14:50:26.503Z,85.15
2023-02-03T14:53:36.125Z,85.89
2023-02-03T14:56:18.606Z,86.70
2023-02-03T14:58:53.498Z,87.67
2023-02-03T15:01:35.828Z,86.80
2023-02-03T15:04:23.211Z,86.99
2023-02-03T15:06:52.893Z,86.33
2023-02-03T15:09:56.843Z,87.07
2023-02-03T15:12:26.818Z,87.41
2023-02-03T15:14:54.489Z,86.72
2023-02-03T15:17:24.630Z,87.89
2023-02-03T15:19:52.192Z,87.38
2023-02-03T15:22:27.642Z,88.49
2023-02-03T15:25:17.313Z,88.04
2023-02-03T15:27:44.407Z,87.82
2023-02-03T15:30:28.316Z,87.66
2023-02-03T15:33:05.675Z,88.57
2023-02-03T15:35:35.623Z,88.44
2023-02-03T15:38:22.950Z,87.90
2023-02-03T15:40:57.825Z,86.81
2023-02-03T15:43:44.192Z,88.70
2023-02-03T15:46:41.184Z,89.41
2023-02-03T15:49:35.419Z,89.36
2023-02-03T15:52:11.478Z,88.62
2023-02-03T15:54:45.723Z,88.34
2023-02-03T15:57:23.309Z,88.15
2023-02-03T16:00:03.954Z,88.77
2023-02-03T16:02:46.026Z,89.64
2023-02-03T16:05:34.504Z,90.90
2023-02-03T16:08:40.317Z,90.13
2023-02-03T16:11:25.283Z,90.42
2023-02-03T16:13:55.584Z,90.69
2023-02-03T16:16:35.434Z,89.75
2023-02-03T16:19:12.649Z,89.39
2023-02-03T16:21:51.585Z,88.56
2023-02-03T16:24:38.079Z,88.92
2023-02-03T16:27:27.076Z,89.14
2023-02-03T16:30:14.442Z,90.15
2023-02-03T16:32:59.857Z,90.50
2023-02-03T16:35:45.342Z,91.00
2023-02-03T16:38:36.585Z,90.21
2023-02-03T16:41:23.161Z,89.17
2023-02-03T16:44:08.753Z,89.57
2023-02-03T16:46:55.964Z,90.57
2023-02-03T16:49:41.544Z,89.78
2023-02-03T16:52:08.780Z,88.87
2023-02-03T16:54:35.930Z,87.46
2023-02-03T16:57:02.911Z,87.12
2023-02-03T16:59:29.983Z,86.47
2023-02-03T17:01:57.107Z,86.79
2023-02-03T17:04:24.167Z,87.33
2023-02-03T17:06:51.433Z,86.75
2023-02-03T17:09:25.002Z,86.28
2023-02-03T17:11:52.071Z,86.27
2023-02-03T17:14:19.096Z,85.50
2023-02-03T17:16:46.167Z,85.10
2023-02-03T17:19:13.258Z,85.88
2023-02-03T17:21:40.288Z,85.60
2023-02-03T17:24:07.798Z,84.26
2023-02-03T17:26:35.472Z,85.88
2023-02-03T17:29:03.287Z,85.55
2023-02-03T17:31:31.686Z,85.96
2023-02-03T17:33:59.128Z,84.28
2023-02-03T17:36:26.602Z,84.49
2023-02-03T17:55:24.961Z,84.13
2023-02-03T17:57:52.149Z,84.77
2023-02-03T18:00:19.473Z,84.49
2023-02-03T18:02:50.578Z,84.92
2023-02-03T18:05:18.705Z,84.27
2023-02-03T18:07:45.875Z,87.18
2023-02-03T18:10:13.103Z,87.90
2023-02-03T18:12:40.206Z,88.78
2023-02-03T18:15:07.635Z,89.85
2023-02-03T18:17:34.764Z,90.51
2023-02-03T18:20:03.600Z,91.75
2023-02-03T18:22:30.730Z,92.17
2023-02-03T18:24:57.850Z,91.67
2023-02-03T18:27:24.854Z,92.18
2023-02-03T18:29:51.905Z,91.72
2023-02-03T18:32:20.052Z,93.32
2023-02-03T18:34:47.442Z,93.88
2023-02-03T18:37:14.425Z,93.02
2023-02-03T18:39:41.513Z,93.83
2023-02-03T18:42:08.515Z,93.71
2023-02-03T18:44:35.765Z,92.56
2023-02-03T18:47:07.123Z,92.30
2023-02-03T18:49:36.318Z,91.72
2023-02-03T18:52:04.155Z,90.63
2023-02-03T18:54:31.319Z,90.93
2023-02-03T18:56:59.146Z,90.49
2023-02-03T18:59:26.402Z,91.02
2023-02-03T19:01:53.977Z,90.80
2023-02-03T19:04:21.345Z,90.28
2023-02-03T19:06:48.557Z,89.82
2023-02-03T19:09:18.080Z,89.30
2023-02-03T19:11:45.744Z,90.07
2023-02-03T19:14:14.301Z,90.39
2023-02-03T19:16:41.426Z,90.26
2023-02-03T19:19:08.904Z,90.12
2023-02-03T19:21:35.987Z,89.47
2023-02-03T19:24:03.008Z,89.05
2023-02-03T19:26:30.096Z,89.30
2023-02-03T19:28:57.252Z,89.00
2023-02-03T19:31:24.538Z,90.28
2023-02-03T19:33:51.769Z,89.62
2023-02-03T19:36:18.885Z,88.50
2023-02-03T19:38:45.960Z,88.23
2023-02-03T19:41:13.044Z,88.48
2023-02-03T19:43:40.377Z,87.72
2023-02-03T19:46:08.451Z,87.03
2023-02-03T19:48:36.566Z,88.86
2023-02-03T19:51:03.782Z,89.04
2023-02-03T19:53:30.828Z,88.81
2023-02-03T19:55:57.897Z,88.30
2023-02-03T19:58:25.406Z,87.70
2023-02-03T20:00:52.481Z,88.00
2023-02-03T20:03:20.044Z,87.41
2023-02-03T20:05:47.159Z,86.34
2023-02-03T20:08:15.751Z,86.93
2023-02-03T20:10:46.976Z,86.07
2023-02-03T20:13:14.684Z,86.53
2023-02-03T20:15:42.156Z,86.50
2023-02-03T20:18:09.289Z,86.98
2023-02-03T20:20:36.786Z,86.43
2023-02-03T20:23:03.920Z,86.69
2023-02-03T20:25:30.980Z,86.87
2023-02-03T20:27:59.836Z,86.39
2023-02-03T20:30:26.924Z,86.09
2023-02-03T20:32:54.867Z,85.59
2023-02-03T20:35:23.921Z,86.19
2023-02-03T20:37:51.598Z,85.13
2023-02-03T20:40:22.314Z,85.81
2023-02-03T20:42:50.394Z,85.02
2023-02-03T20:45:18.644Z,84.89
2023-02-03T20:47:45.814Z,83.91
2023-02-03T20:50:31.480Z,83.73
2023-02-03T20:53:01.742Z,83.66
2023-02-03T20:55:28.807Z,84.02
2023-02-03T20:57:56.993Z,84.03
2023-02-03T21:00:26.361Z,83.15
2023-02-03T21:03:12.010Z,83.18
2023-02-03T21:05:42.269Z,81.93
2023-02-03T21:08:20.026Z,81.30
2023-02-03T21:10:48.385Z,82.06
2023-02-03T21:13:26.478Z,81.70
2023-02-03T21:16:03.044Z,81.32
2023-02-03T21:18:34.561Z,81.54
2023-02-03T21:21:02.562Z,81.46
2023-02-03T21:23:42.540Z,80.98
2023-02-03T21:26:21.504Z,80.98
2023-02-03T21:28:54.366Z,80.55
2023-02-03T21:31:30.199Z,81.15
2023-02-03T21:34:15.236Z,81.45
2023-02-03T21:36:42.271Z,80.88
2023-02-03T21:39:30.160Z,80.25
2023-02-03T21:42:00.595Z,80.99
2023-02-03T21:44:33.845Z,81.18
2023-02-03T21:47:06.120Z,81.67
2023-02-03T21:49:35.448Z,81.53
2023-02-03T21:52:02.511Z,81.69
2023-02-03T21:54:33.872Z,82.25
2023-02-03T21:57:01.601Z,82.64
2023-02-03T21:59:37.483Z,83.46
2023-02-03T22:02:23.991Z,83.07
2023-02-03T22:04:50.970Z,82.07
2023-02-03T22:07:20.851Z,82.88
2023-02-03T22:09:50.364Z,81.42
2023-02-03T22:12:17.467Z,81.89
2023-02-03T22:14:44.495Z,81.72
2023-02-03T22:17:14.243Z,81.20
2023-02-03T22:19:41.401Z,81.05
2023-02-03T22:22:08.506Z,80.39
2023-02-03T22:24:35.536Z,79.31
2023-02-03T22:27:02.542Z,78.65
2023-02-03T22:29:29.670Z,78.59
2023-02-03T22:31:56.798Z,78.71
2023-02-03T22:34:23.903Z,78.34
2023-02-03T22:36:50.910Z,78.00
2023-02-03T22:39:17.923Z,77.60
2023-02-03T22:41:45.077Z,77.73
2023-02-03T22:44:16.153Z,77.46
2023-02-03T22:46:43.180Z,77.61
2023-02-03T22:49:10.598Z,77.58
2023-02-03T22:51:40.383Z,77.72
2023-02-03T22:54:09.845Z,78.05
2023-02-03T22:56:39.832Z,78.17
2023-02-03T22:59:06.807Z,76.39
2023-02-03T23:01:34.694Z,77.84
2023-02-03T23:04:01.716Z,77.46
2023-02-03T23:06:28.790Z,77.58
2023-02-03T23:08:56.032Z,77.13
2023-02-03T23:11:23.078Z,76.47
2023-02-03T23:13:50.151Z,77.59
2023-02-03T23:16:17.215Z,77.71
2023-02-03T23:18:44.253Z,77.91
2023-02-03T23:21:11.267Z,77.76
2023-02-03T23:23:38.457Z,77.74
2023-02-03T23:26:05.759Z,77.41
2023-02-03T23:28:32.795Z,77.55
2023-02-03T23:30:59.922Z,76.25
2023-02-03T23:33:27.037Z,77.64
2023-02-03T23:35:56.390Z,78.29
2023-02-03T23:38:23.452Z,77.87
2023-02-03T23:40:50.476Z,77.35
2023-02-03T23:43:17.797Z,77.71
2023-02-03T23:45:44.822Z,77.62
2023-02-03T23:48:12.683Z,77.10
2023-02-03T23:50:42.446Z,77.09
2023-02-03T23:53:09.667Z,77.00
2023-02-03T23:55:36.830Z,77.99
2023-02-03T23:58:05.109Z,78.47
